Time;durP1;ratioP1;P1;durP2;ratioP2;P2;SDS_P1;SDS_P2;PMS_P1;PMS_P2;Temp;Humidity;BMP_temperature;BMP_pressure;BME280_temperature;BME280_humidity;BME280_pressure;Samples;Min_cycle;Max_cycle;Signal;HPM_P1;HPM_P2
2022/07/02 00:01:20;;;;;;;3.25;1.95;;;12.80;99.90;;;12.46;100.00;97888.44;4940415;28;20102;-41
2022/07/02 00:03:53;;;;;;;1.67;1.50;;;12.80;99.90;;;12.46;100.00;97883.16;4933652;28;20296;-43
2022/07/02 00:06:20;;;;;;;2.08;1.40;;;12.80;99.90;;;12.45;100.00;97894.63;4917311;29;20031;-40
2022/07/02 00:08:46;;;;;;;2.25;1.83;;;12.80;99.90;;;12.44;100.00;97892.94;4929299;28;20101;-40
2022/07/02 00:11:16;;;;;;;1.85;1.30;;;12.70;99.90;;;12.43;100.00;97884.09;4930965;28;20586;-40
2022/07/02 00:13:43;;;;;;;6.93;1.52;;;12.70;99.90;;;12.39;100.00;97875.44;4928477;28;20708;-42
2022/07/02 00:16:10;;;;;;;2.08;1.27;;;12.70;99.90;;;12.37;100.00;97885.19;4928620;28;20032;-40
2022/07/02 00:18:37;;;;;;;1.85;1.63;;;12.70;99.90;;;12.34;100.00;97882.66;4936698;28;20122;-40
2022/07/02 00:21:03;;;;;;;1.13;1.10;;;12.60;99.90;;;12.31;100.00;97877.50;4953959;23;20129;-47
2022/07/02 00:23:29;;;;;;;2.42;1.13;;;12.60;99.90;;;12.29;100.00;97883.75;4947533;28;20031;-49
2022/07/02 00:26:04;;;;;;;1.52;1.30;;;12.60;99.90;;;12.25;100.00;97880.34;4944337;28;20683;-50
2022/07/02 00:28:33;;;;;;;3.08;1.48;;;12.60;99.90;;;12.21;100.00;97890.19;4955771;28;20035;-49
2022/07/02 00:30:59;;;;;;;1.25;1.15;;;12.50;99.90;;;12.19;100.00;97889.38;4946565;28;20086;-48
2022/07/02 00:33:26;;;;;;;4.35;1.42;;;12.50;99.90;;;12.16;100.00;97889.47;4929192;28;20055;-48
2022/07/02 00:35:52;;;;;;;2.25;1.42;;;12.50;99.90;;;12.15;100.00;97885.13;4908151;29;20518;-48
2022/07/02 00:38:18;;;;;;;1.50;1.35;;;12.50;99.90;;;12.12;100.00;97885.22;4928452;28;20035;-47
2022/07/02 00:40:44;;;;;;;1.92;1.35;;;12.40;99.90;;;12.12;100.00;97887.88;4929995;28;20028;-49
2022/07/02 00:43:11;;;;;;;4.03;1.45;;;12.40;99.90;;;12.09;100.00;97885.31;4914026;29;20126;-50
2022/07/02 00:45:38;;;;;;;1.50;1.40;;;12.40;99.90;;;12.11;100.00;97890.56;4926605;28;20043;-48
2022/07/02 00:48:04;;;;;;;1.85;1.42;;;12.40;99.90;;;12.09;100.00;97885.31;4914013;28;22300;-47
2022/07/02 00:50:30;;;;;;;2.22;1.70;;;12.40;99.90;;;12.07;100.00;97884.50;4934117;28;21783;-48
2022/07/02 00:52:56;;;;;;;2.05;1.63;;;12.40;99.90;;;12.07;100.00;97884.50;4933621;28;20039;-49
2022/07/02 00:55:22;;;;;;;2.35;1.83;;;12.40;99.90;;;12.07;100.00;97891.59;4928351;28;20063;-47
2022/07/02 00:57:48;;;;;;;2.85;1.70;;;12.40;99.90;;;12.06;100.00;97880.16;4929481;28;20032;-49
2022/07/02 01:00:16;;;;;;;2.47;1.90;;;12.40;99.90;;;12.06;100.00;97881.91;4929538;28;20043;-48
2022/07/02 01:02:46;;;;;;;2.97;2.25;;;12.40;99.90;;;12.01;100.00;97887.38;4927159;28;20062;-49
2022/07/02 01:05:19;;;;;;;2.80;2.17;;;12.40;99.90;;;12.03;100.00;97889.03;4928940;28;20027;-49
2022/07/02 01:10:54;;;;;;;3.88;2.60;;;12.30;99.90;;;12.03;100.00;97885.56;4924072;28;20130;-48
2022/07/02 01:13:20;;;;;;;2.83;2.33;;;12.40;99.90;;;11.99;100.00;97874.22;4930348;28;20514;-48
2022/07/02 01:15:46;;;;;;;2.60;2.33;;;12.30;99.90;;;12.00;100.00;97875.94;4913198;28;20050;-48
2022/07/02 01:18:17;;;;;;;2.92;2.30;;;12.30;99.90;;;12.01;100.00;97877.66;4937036;28;20468;-49
2022/07/02 01:20:44;;;;;;;2.72;2.47;;;12.30;99.90;;;12.01;100.00;97866.25;4928802;28;20399;-50
2022/07/02 01:23:10;;;;;;;4.30;2.38;;;12.30;99.90;;;11.99;100.00;97871.56;4936788;28;20090;-49
2022/07/02 01:25:36;;;;;;;3.35;2.67;;;12.30;99.90;;;11.98;100.00;97866.34;4927128;28;20285;-47
2022/07/02 01:28:02;;;;;;;3.00;2.30;;;12.30;99.90;;;11.93;100.00;97863.00;4930293;28;22355;-49
2022/07/02 01:30:28;;;;;;;3.65;2.85;;;12.30;99.90;;;11.94;100.00;97868.22;4928827;28;20114;-48
2022/07/02 01:32:53;;;;;;;3.60;2.58;;;12.30;99.90;;;11.93;100.00;97863.00;4919858;29;20031;-49
2022/07/02 01:35:19;;;;;;;4.32;2.65;;;12.30;99.90;;;11.91;100.00;97862.19;4929976;28;20036;-48
2022/07/02 01:37:45;;;;;;;2.67;2.28;;;12.20;99.90;;;11.88;100.00;97868.41;4931128;28;21088;-49
2022/07/02 01:40:11;;;;;;;4.03;2.40;;;12.20;99.90;;;11.86;100.00;97872.88;4932405;28;20031;-49
2022/07/02 01:42:38;;;;;;;3.92;2.30;;;12.20;99.90;;;11.83;100.00;97871.22;4928195;28;20046;-49
2022/07/02 01:45:04;;;;;;;3.47;2.40;;;12.20;99.90;;;11.82;100.00;97869.47;4928209;28;20047;-48
2022/07/02 01:47:30;;;;;;;2.67;2.17;;;12.20;99.90;;;11.82;100.00;97868.63;4930534;28;20031;-48
2022/07/02 01:49:55;;;;;;;3.95;2.30;;;12.10;99.90;;;11.77;100.00;97859.97;4932818;28;20129;-46
2022/07/02 01:52:21;;;;;;;2.97;2.55;;;12.10;99.90;;;11.79;100.00;97868.72;4932446;28;20567;-48
2022/07/02 01:54:47;;;;;;;2.25;2.03;;;12.10;99.90;;;11.79;100.00;97868.72;4930879;28;20035;-47
2022/07/02 01:57:13;;;;;;;2.70;2.25;;;12.10;99.90;;;11.78;100.00;97870.50;4926991;28;20118;-48
2022/07/02 01:59:39;;;;;;;2.67;2.13;;;12.10;99.90;;;11.77;100.00;97874.06;4924105;28;20496;-48
2022/07/02 02:02:06;;;;;;;3.22;2.60;;;12.10;99.90;;;11.73;100.00;97877.72;4927640;28;20035;-49
2022/07/02 02:04:32;;;;;;;4.85;2.60;;;12.10;99.90;;;11.70;100.00;97864.63;4933717;28;20046;-47
2022/07/02 02:06:59;;;;;;;3.05;2.40;;;12.10;99.90;;;11.69;100.00;97875.25;4929880;28;20551;-48
2022/07/02 02:09:24;;;;;;;3.03;2.22;;;12.10;99.90;;;11.72;100.00;97876.00;4927895;28;20472;-48
2022/07/02 02:11:50;;;;;;;8.88;2.72;;;12.10;99.90;;;11.72;100.00;97877.75;4932280;28;20117;-48
2022/07/02 02:14:16;;;;;;;3.60;2.17;;;12.00;99.90;;;11.58;100.00;97857.13;4929897;28;20181;-49
2022/07/02 02:16:42;;;;;;;2.92;2.20;;;12.00;99.90;;;11.67;100.00;97874.44;4930893;28;20023;-48
2022/07/02 02:19:08;;;;;;;2.53;2.13;;;12.00;99.90;;;11.56;100.00;97856.31;4930121;28;20663;-49
2022/07/02 02:21:34;;;;;;;3.30;2.50;;;12.00;99.90;;;11.65;100.00;97870.06;4922199;28;20546;-48
2022/07/02 02:23:59;;;;;;;2.53;2.33;;;12.00;99.90;;;11.65;100.00;97877.13;4935247;28;20464;-48
2022/07/02 02:26:26;;;;;;;3.20;2.47;;;12.00;99.90;;;11.60;100.00;97866.72;4924909;28;20031;-49
2022/07/02 02:28:52;;;;;;;3.33;2.40;;;12.00;99.90;;;11.61;100.00;97872.84;4928981;28;20737;-49
2022/07/02 02:31:18;;;;;;;3.17;2.40;;;12.00;99.90;;;11.59;100.00;97872.03;4937660;28;20051;-49
2022/07/02 02:33:43;;;;;;;3.33;2.22;;;11.90;99.90;;;11.58;100.00;97873.81;4929952;28;20036;-49
2022/07/02 02:36:09;;;;;;;3.58;2.40;;;11.90;99.90;;;11.59;100.00;97865.00;4931517;28;20077;-49
2022/07/02 02:38:36;;;;;;;4.10;2.65;;;11.90;99.90;;;11.55;100.00;97863.34;4930623;29;20435;-49
2022/07/02 02:41:07;;;;;;;3.20;2.63;;;11.90;99.90;;;11.58;100.00;97862.41;4923938;28;20039;-49
2022/07/02 02:43:37;;;;;;;3.63;2.00;;;11.90;99.90;;;11.56;100.00;97864.25;4898347;28;20110;-48
2022/07/02 02:46:05;;;;;;;4.60;2.63;;;11.90;99.90;;;11.52;100.00;97863.47;4929162;28;20456;-49
2022/07/02 02:48:31;;;;;;;5.53;2.50;;;11.90;99.90;;;11.50;100.00;97870.56;4929658;29;20291;-49
2022/07/02 02:50:57;;;;;;;3.03;2.60;;;11.90;99.90;;;11.49;100.00;97863.56;4929890;28;20043;-49
2022/07/02 02:53:23;;;;;;;2.50;2.30;;;11.80;99.90;;;11.48;100.00;97869.75;4929259;28;20032;-49
2022/07/02 02:55:49;;;;;;;3.65;2.50;;;11.80;99.90;;;11.35;100.00;97844.66;4930785;28;20032;-48
2022/07/02 02:58:15;;;;;;;3.90;2.47;;;11.80;99.90;;;11.46;100.00;97864.50;4927444;28;20118;-47
2022/07/02 03:00:41;;;;;;;4.32;2.75;;;11.80;99.90;;;11.43;100.00;97863.75;4923094;28;23894;-50
2022/07/02 03:03:07;;;;;;;3.10;2.80;;;11.80;99.90;;;11.44;100.00;97860.22;4926558;28;20415;-48
2022/07/02 03:05:32;;;;;;;3.65;2.60;;;11.80;99.90;;;11.42;100.00;97862.03;4926675;28;20092;-50
2022/07/02 03:07:58;;;;;;;3.72;2.45;;;11.80;99.90;;;11.42;100.00;97865.53;4927189;28;20138;-48
2022/07/02 03:10:24;;;;;;;2.50;2.25;;;11.80;99.90;;;11.44;100.00;97871.63;4936407;28;20035;-47
2022/07/02 03:12:50;;;;;;;2.95;2.38;;;11.80;99.90;;;11.42;100.00;97869.97;4930567;28;20761;-48
2022/07/02 03:15:15;;;;;;;3.33;2.40;;;11.80;99.90;;;11.41;100.00;97865.59;4932119;28;20035;-49
2022/07/02 03:17:41;;;;;;;3.17;2.30;;;11.80;99.90;;;11.44;100.00;97868.13;4934348;28;20380;-49
2022/07/02 03:20:08;;;;;;;4.13;2.85;;;11.80;99.90;;;11.44;100.00;97866.34;4929552;28;20055;-49
2022/07/02 03:22:33;;;;;;;3.55;2.65;;;11.80;99.90;;;11.44;100.00;97870.78;4928287;28;20031;-48
2022/07/02 03:24:59;;;;;;;3.00;2.10;;;11.80;99.90;;;11.41;100.00;97869.13;4932602;28;20037;-49
2022/07/02 03:27:25;;;;;;;3.38;2.60;;;11.80;99.90;;;11.43;100.00;97874.31;4929769;28;20492;-48
2022/07/02 03:29:51;;;;;;;3.47;2.47;;;11.80;99.90;;;11.44;100.00;97878.69;4926449;28;21860;-47
2022/07/02 03:32:18;;;;;;;3.00;2.30;;;11.80;99.90;;;11.45;100.00;97877.81;4925909;28;20517;-49
2022/07/02 03:34:44;;;;;;;3.30;2.30;;;11.80;99.90;;;11.43;100.00;97874.31;4930852;28;20042;-49
2022/07/02 03:37:10;;;;;;;3.30;2.33;;;11.80;99.90;;;11.43;100.00;97876.97;4924741;29;20733;-47
2022/07/02 03:39:36;;;;;;;4.07;2.65;;;11.80;99.90;;;11.45;100.00;97885.72;4919886;28;20063;-47
2022/07/02 03:42:01;;;;;;;4.57;2.60;;;11.80;99.90;;;11.43;100.00;97882.25;4919749;28;20035;-48
2022/07/02 03:44:27;;;;;;;2.65;2.42;;;11.80;99.90;;;11.43;100.00;97885.75;4935704;28;20097;-48
2022/07/02 03:46:53;;;;;;;2.60;2.40;;;11.80;99.90;;;11.44;100.00;97886.63;4918331;28;20038;-49
2022/07/02 03:49:18;;;;;;;2.67;2.30;;;11.80;99.90;;;11.43;100.00;97891.03;4929616;28;20279;-50
2022/07/02 03:51:44;;;;;;;4.50;2.30;;;11.70;99.90;;;11.44;100.00;97886.63;4925573;28;20039;-50
2022/07/02 03:54:10;;;;;;;4.28;2.08;;;11.80;99.90;;;11.46;100.00;97887.44;4927619;28;20422;-50
2022/07/02 03:56:35;;;;;;;4.20;2.38;;;11.80;99.90;;;11.46;100.00;97893.56;4930554;28;20118;-50
2022/07/02 03:59:01;;;;;;;3.55;2.50;;;11.80;99.90;;;11.47;100.00;97891.81;4921640;29;20082;-48
2022/07/02 04:01:27;;;;;;;3.17;2.47;;;11.80;99.90;;;11.46;100.00;97893.56;4932682;28;20039;-50
2022/07/02 04:03:52;;;;;;;3.47;2.45;;;11.80;99.90;;;11.46;100.00;97893.56;4927308;28;20031;-50
2022/07/02 04:06:18;;;;;;;3.90;2.35;;;11.80;99.90;;;11.48;100.00;97895.31;4931343;28;20808;-48
2022/07/02 04:08:44;;;;;;;2.42;2.22;;;11.80;99.90;;;11.51;100.00;97893.44;4932657;28;20038;-48
2022/07/02 04:11:09;;;;;;;3.05;2.58;;;11.80;99.90;;;11.56;100.00;97891.50;4930906;28;20039;-49
2022/07/02 04:13:35;;;;;;;3.40;2.40;;;11.90;99.90;;;11.65;100.00;97890.34;4934738;28;20043;-50
2022/07/02 04:16:01;;;;;;;2.53;2.30;;;12.00;99.90;;;11.74;100.00;97891.81;4930487;28;21614;-49
2022/07/02 04:18:27;;;;;;;3.40;2.50;;;12.10;99.90;;;11.82;100.00;97892.41;4929316;28;20171;-49
2022/07/02 04:20:52;;;;;;;5.03;2.70;;;12.20;99.90;;;11.91;100.00;97894.75;4931583;28;20061;-49
2022/07/02 04:23:18;;;;;;;3.22;2.60;;;12.20;99.90;;;11.99;100.00;97891.88;4934379;28;20320;-49
2022/07/02 04:25:44;;;;;;;3.22;2.33;;;12.30;99.90;;;12.06;100.00;97896.03;4936495;28;20081;-50
2022/07/02 04:28:11;;;;;;;2.78;2.47;;;12.40;99.90;;;12.13;100.00;97894.00;4921949;28;20625;-50
2022/07/02 04:30:37;;;;;;;4.55;2.85;;;12.50;99.90;;;12.16;100.00;97889.47;4933599;28;20039;-50
2022/07/02 04:33:02;;;;;;;4.80;2.83;;;12.50;99.90;;;12.28;100.00;97895.25;4933385;28;20125;-50
2022/07/02 04:35:30;;;;;;;4.07;2.90;;;12.60;99.90;;;12.35;100.00;97897.63;4938534;28;20182;-50
2022/07/02 04:37:55;;;;;;;3.10;2.33;;;12.60;99.90;;;12.41;100.00;97894.75;4930095;28;20042;-49
2022/07/02 04:40:21;;;;;;;4.20;2.80;;;12.70;99.90;;;12.48;100.00;97890.09;4935213;28;20028;-50
2022/07/02 04:42:47;;;;;;;3.65;2.80;;;12.80;99.90;;;12.54;100.00;97891.66;4935169;28;20032;-50
2022/07/02 04:45:12;;;;;;;4.20;2.85;;;12.90;99.90;;;12.62;100.00;97897.53;4930049;28;20039;-49
2022/07/02 04:47:38;;;;;;;3.45;2.40;;;12.90;99.90;;;12.69;100.00;97903.47;4933437;28;20023;-50
2022/07/02 04:50:04;;;;;;;3.90;2.60;;;13.00;99.90;;;12.74;100.00;97899.72;4925705;28;20062;-49
2022/07/02 04:52:30;;;;;;;2.80;2.50;;;13.10;99.90;;;12.80;100.00;97894.19;4920810;28;20027;-50
2022/07/02 04:54:56;;;;;;;2.88;2.53;;;13.10;99.90;;;12.88;100.00;97896.53;4927597;28;20555;-50
2022/07/02 04:57:21;;;;;;;4.47;2.45;;;13.20;99.90;;;12.95;100.00;97897.16;4934055;28;20089;-50
2022/07/02 04:59:47;;;;;;;2.75;2.30;;;13.30;99.90;;;13.06;100.00;97888.81;4933837;28;20051;-48
2022/07/02 05:02:13;;;;;;;3.05;2.28;;;13.40;99.90;;;13.33;100.00;97898.34;4931523;28;20491;-50
2022/07/02 05:04:39;;;;;;;2.25;1.92;;;13.50;99.90;;;13.78;100.00;97893.84;4932707;28;20078;-49
2022/07/02 05:07:05;;;;;;;3.00;2.15;;;13.80;99.90;;;14.56;100.00;97902.03;4930700;28;20039;-47
2022/07/02 05:09:31;;;;;;;2.05;1.85;;;14.20;99.90;;;15.36;100.00;97904.50;4928953;28;20558;-49
2022/07/02 05:11:57;;;;;;;1.65;1.20;;;14.80;99.90;;;16.56;100.00;97910.91;4933670;28;20068;-50
2022/07/02 05:14:23;;;;;;;2.92;1.77;;;15.50;99.90;;;17.76;100.00;97901.63;4922526;28;20036;-50
2022/07/02 05:16:48;;;;;;;1.98;1.58;;;16.30;99.90;;;19.18;100.00;97907.28;4928732;28;20058;-47
2022/07/02 05:19:14;;;;;;;1.20;1.10;;;17.20;99.90;;;20.64;100.00;97904.81;4923631;28;20035;-46
2022/07/02 05:21:42;;;;;;;1.90;1.30;;;18.30;99.90;;;21.67;93.46;97909.97;4929239;28;20455;-49
2022/07/02 05:24:07;;;;;;;1.60;1.30;;;19.30;99.90;;;22.51;83.86;97915.34;4931994;28;20047;-50
2022/07/02 05:26:33;;;;;;;2.80;1.60;;;20.10;99.90;;;23.11;70.46;97911.50;4930841;28;20035;-49
2022/07/02 05:28:59;;;;;;;1.65;1.30;;;20.80;99.90;;;23.89;66.14;97917.75;4926978;28;20138;-49
2022/07/02 05:31:25;;;;;;;1.85;1.23;;;21.30;99.90;;;24.27;63.13;97923.59;4926164;28;20035;-49
2022/07/02 05:33:51;;;;;;;1.17;1.08;;;21.80;99.90;;;24.42;63.46;97922.28;4929721;28;20053;-50
2022/07/02 05:36:17;;;;;;;2.38;1.60;;;22.00;99.90;;;24.05;62.39;97921.84;4929062;28;20098;-50
2022/07/02 05:38:42;;;;;;;1.48;1.10;;;22.00;99.90;;;23.32;66.70;97927.75;4938304;28;20055;-48
2022/07/02 05:41:08;;;;;;;1.40;1.05;;;21.80;99.90;;;22.46;69.99;97927.28;4930074;28;20042;-50
2022/07/02 05:43:34;;;;;;;1.50;1.20;;;21.40;99.90;;;21.66;69.51;97917.19;4926830;28;20045;-50
2022/07/02 05:46:00;;;;;;;2.10;1.42;;;20.90;99.90;;;20.79;72.93;97927.84;4933231;28;20154;-49
2022/07/02 05:48:25;;;;;;;1.30;1.20;;;20.40;99.90;;;20.20;77.24;97930.09;4932472;28;20067;-50
2022/07/02 05:50:51;;;;;;;1.38;1.20;;;19.90;99.90;;;19.75;79.68;97932.22;4924920;28;20579;-50
2022/07/02 05:53:17;;;;;;;2.33;1.20;;;19.50;99.90;;;19.29;82.25;97929.81;4928846;28;20032;-47
2022/07/02 05:55:42;;;;;;;1.50;1.15;;;19.20;99.90;;;18.85;84.84;97908.47;4924300;28;20401;-47
2022/07/02 05:58:08;;;;;;;3.13;1.30;;;18.90;99.90;;;18.56;86.86;97928.09;4925329;28;20051;-47
2022/07/02 06:00:34;;;;;;;1.55;1.20;;;18.70;99.90;;;18.33;88.61;97925.00;4923876;28;20094;-50
2022/07/02 06:03:00;;;;;;;3.20;1.30;;;18.40;99.90;;;18.17;90.02;97924.22;4928779;28;20077;-50
2022/07/02 06:08:10;;;;;;;3.15;1.50;;;18.10;99.90;;;17.78;93.37;97926.41;4920695;28;23370;-51
2022/07/02 06:10:36;;;;;;;5.28;1.60;;;18.00;99.90;;;17.67;94.89;97927.03;4923151;28;20071;-47
2022/07/02 06:13:02;;;;;;;2.03;1.27;;;17.90;99.90;;;17.71;96.25;97927.72;4929889;28;20043;-50
2022/07/02 06:15:28;;;;;;;0.98;0.93;;;17.90;99.90;;;17.73;95.80;97928.50;4923504;28;20063;-47
2022/07/02 06:17:58;;;;;;;2.65;1.48;;;17.80;99.90;;;17.74;95.94;97925.72;4922696;29;20023;-50
2022/07/02 06:20:23;;;;;;;3.95;1.05;;;17.90;99.90;;;17.80;96.70;97931.66;4931856;28;20031;-50
2022/07/02 06:22:49;;;;;;;2.70;1.35;;;17.90;99.90;;;17.81;94.58;97934.25;4964854;23;20157;-40
2022/07/02 06:25:15;;;;;;;1.20;1.05;;;18.00;99.90;;;17.84;94.66;97918.06;4966736;28;20117;-40
2022/07/02 06:27:40;;;;;;;1.25;1.10;;;18.00;99.90;;;17.97;94.88;97926.25;4960235;28;20399;-40
2022/07/02 06:30:07;;;;;;;3.17;1.02;;;18.10;99.90;;;18.10;94.82;97921.88;4953628;28;20038;-41
2022/07/02 06:32:33;;;;;;;1.52;0.85;;;18.20;99.90;;;18.28;90.89;97921.75;4964753;28;20018;-41
2022/07/02 06:34:59;;;;;;;2.85;0.85;;;18.30;99.90;;;18.22;89.94;97930.13;4955899;28;20653;-39
2022/07/02 06:37:26;;;;;;;0.90;0.70;;;18.40;99.90;;;18.24;88.02;97923.75;4960845;28;20037;-43
2022/07/02 06:39:51;;;;;;;1.33;0.95;;;18.40;99.90;;;18.28;87.38;97919.06;4952296;28;20108;-41
2022/07/02 06:42:22;;;;;;;1.00;0.70;;;18.40;99.90;;;18.29;87.58;97912.78;4959768;28;20026;-42
2022/07/02 06:44:52;;;;;;;6.85;1.00;;;18.50;99.90;;;18.33;88.17;97919.66;4971831;28;20034;-41
2022/07/02 06:47:18;;;;;;;2.50;1.00;;;18.50;99.90;;;18.41;86.72;97922.75;4959383;28;20041;-40
2022/07/02 06:49:45;;;;;;;3.08;0.93;;;18.60;99.90;;;18.47;84.86;97916.16;4965309;28;20572;-41
2022/07/02 06:52:11;;;;;;;1.00;0.70;;;18.60;99.90;;;18.53;85.14;97915.78;4966785;28;20045;-41
2022/07/02 06:54:38;;;;;;;0.70;0.65;;;18.70;99.90;;;18.60;85.67;97916.28;4966292;28;20446;-41
2022/07/02 06:57:04;;;;;;;3.22;0.80;;;18.80;99.90;;;18.65;84.01;97919.53;4967592;28;20034;-41
2022/07/02 06:59:31;;;;;;;1.52;0.80;;;18.80;99.90;;;18.72;85.35;97911.97;4965098;28;20035;-41
2022/07/02 07:01:57;;;;;;;1.48;0.88;;;18.90;99.90;;;18.73;84.64;97913.69;4965318;28;20038;-41
2022/07/02 07:04:23;;;;;;;0.77;0.77;;;18.90;99.90;;;18.81;84.02;97916.78;4966055;28;20039;-41
2022/07/02 07:06:54;;;;;;;6.10;0.90;;;19.00;99.90;;;18.89;84.82;97912.66;4962846;28;20214;-41
2022/07/02 07:09:19;;;;;;;1.10;0.65;;;19.00;99.90;;;18.98;84.27;97921.06;4962448;28;20113;-41
2022/07/02 07:11:45;;;;;;;0.85;0.77;;;19.20;99.90;;;19.06;82.68;97924.13;4948085;28;20030;-44
2022/07/02 07:14:11;;;;;;;0.98;0.63;;;19.20;99.90;;;19.10;79.26;97917.63;4950008;28;20046;-42
2022/07/02 07:16:37;;;;;;;0.70;0.70;;;19.30;99.90;;;19.14;76.75;97923.66;4962957;28;20026;-43
2022/07/02 07:19:06;;;;;;;1.40;0.68;;;19.30;99.90;;;19.23;76.80;97929.25;4962855;28;20026;-41
2022/07/02 07:21:33;;;;;;;2.22;0.43;;;19.40;99.90;;;19.31;77.33;97928.78;4958225;28;20030;-41
2022/07/02 07:23:58;;;;;;;0.70;0.43;;;19.50;99.90;;;19.36;73.01;97925.78;4969616;28;20137;-42
2022/07/02 07:26:24;;;;;;;0.88;0.65;;;19.50;99.90;;;19.37;69.82;97920.34;4970706;28;20049;-42
2022/07/02 07:28:50;;;;;;;0.70;0.60;;;19.60;99.90;;;19.31;70.04;97911.84;4971595;28;20112;-41
2022/07/02 07:31:21;;;;;;;1.38;0.60;;;19.60;99.90;;;19.47;70.70;97920.63;4967828;28;20292;-43
2022/07/02 07:33:52;;;;;;;0.60;0.60;;;19.70;99.90;;;19.54;68.50;97923.75;4968554;28;20042;-41
2022/07/02 07:36:20;;;;;;;1.00;0.40;;;19.70;99.90;;;19.57;66.06;97915.53;4959869;28;20038;-41
2022/07/02 07:38:49;;;;;;;0.75;0.60;;;19.80;99.90;;;19.60;65.99;97916.19;4964149;28;20026;-41
2022/07/02 07:41:15;;;;;;;0.52;0.52;;;19.80;99.90;;;19.64;65.91;97919.53;4964866;28;20494;-42
2022/07/02 07:43:41;;;;;;;0.50;0.50;;;19.80;99.90;;;19.73;65.71;97920.75;4964582;28;20078;-40
2022/07/02 07:46:07;;;;;;;1.63;0.77;;;19.90;99.90;;;19.74;64.95;97917.13;4966902;28;20578;-40
2022/07/02 07:48:33;;;;;;;0.40;0.40;;;19.90;99.90;;;19.83;65.58;97922.72;4969043;28;21045;-41
2022/07/02 07:51:00;;;;;;;0.50;0.50;;;20.00;99.90;;;19.91;63.09;97916.00;4967554;28;20061;-40
2022/07/02 07:53:26;;;;;;;1.27;0.57;;;20.00;99.90;;;19.97;64.46;97905.75;4963835;28;20081;-41
2022/07/02 07:55:52;;;;;;;0.98;0.60;;;20.10;99.90;;;20.03;63.63;97909.84;4955300;28;20406;-43
2022/07/02 07:58:18;;;;;;;0.98;0.57;;;20.20;99.90;;;20.15;63.75;97900.09;4958449;28;20026;-40
2022/07/02 08:00:46;;;;;;;0.70;0.45;;;20.30;99.90;;;20.26;59.82;97912.75;4975004;28;20473;-41
2022/07/02 08:03:17;;;;;;;0.85;0.60;;;20.40;99.90;;;20.32;59.38;97915.88;4972216;28;20116;-41
2022/07/02 08:05:46;;;;;;;0.63;0.50;;;20.50;99.90;;;20.38;59.90;97906.56;4968270;28;20041;-41
2022/07/02 08:08:15;;;;;;;1.00;0.50;;;20.50;99.90;;;20.46;59.51;97901.56;4961857;28;20447;-42
2022/07/02 08:10:41;;;;;;;0.82;0.55;;;20.60;99.90;;;20.51;58.86;97902.09;4972032;28;20030;-42
2022/07/02 08:13:07;;;;;;;0.50;0.50;;;20.60;99.90;;;20.59;59.32;97888.16;4971750;28;20039;-41
2022/07/02 08:15:33;;;;;;;0.55;0.40;;;20.70;99.90;;;20.59;59.36;97885.47;4970257;28;20029;-42
2022/07/02 08:17:58;;;;;;;2.83;0.50;;;20.80;99.90;;;20.66;60.44;97888.63;4970051;28;20019;-41
2022/07/02 08:20:24;;;;;;;0.60;0.60;;;20.80;99.90;;;20.68;58.19;97892.03;4970841;28;20064;-41
2022/07/02 08:22:51;;;;;;;0.82;0.60;;;20.80;99.90;;;20.70;59.17;97882.91;4961279;28;20034;-44
2022/07/02 08:25:17;;;;;;;0.73;0.57;;;20.80;99.90;;;20.77;59.16;97886.88;4963635;28;20041;-41
2022/07/02 08:27:44;;;;;;;0.63;0.50;;;20.90;99.90;;;20.82;58.48;97883.00;4967469;28;20035;-41
2022/07/02 08:30:11;;;;;;;1.10;0.60;;;20.90;99.90;;;20.66;56.72;97864.50;4968840;28;21176;-41
2022/07/02 08:32:38;;;;;;;0.65;0.50;;;20.90;99.90;;;20.78;55.76;97887.72;4973745;28;20058;-41
2022/07/02 08:35:05;;;;;;;1.35;0.60;;;20.90;99.90;;;20.76;55.76;97885.19;4968530;28;20027;-41
2022/07/02 08:37:31;;;;;;;1.08;0.50;;;20.90;99.90;;;20.77;56.64;97881.53;4974697;28;20041;-41
2022/07/02 08:39:58;;;;;;;0.55;0.52;;;20.90;99.90;;;20.85;56.00;97883.66;4970038;28;20066;-41
2022/07/02 08:42:31;;;;;;;0.90;0.60;;;21.00;99.90;;;20.86;58.26;97881.84;4971088;28;20046;-41
2022/07/02 08:45:03;;;;;;;1.08;0.60;;;21.00;99.90;;;20.91;57.01;97877.03;4968564;28;20027;-41
2022/07/02 08:47:30;;;;;;;1.92;0.70;;;21.00;99.90;;;20.95;56.44;97881.19;4967391;28;20522;-41
2022/07/02 08:49:57;;;;;;;1.95;0.70;;;21.10;99.90;;;21.01;55.72;97877.19;4966104;28;20133;-41
2022/07/02 08:52:25;;;;;;;0.50;0.50;;;21.10;99.80;;;21.03;54.85;97857.38;4967862;28;20105;-42
2022/07/02 08:54:53;;;;;;;0.65;0.40;;;21.20;99.30;;;21.08;54.40;97865.91;4957106;28;20038;-40
2022/07/02 08:57:21;;;;;;;3.13;0.60;;;21.20;99.10;;;21.08;53.85;97852.50;4968043;28;20042;-41
2022/07/02 08:59:47;;;;;;;0.75;0.60;;;21.30;99.00;;;21.17;53.12;97857.22;4970568;28;20106;-41
2022/07/02 09:02:15;;;;;;;1.08;0.60;;;21.30;98.60;;;21.13;54.99;97841.47;4965910;28;20482;-42
2022/07/02 09:04:47;;;;;;;0.77;0.43;;;21.40;98.80;;;21.27;54.88;97844.00;4963679;28;20046;-41
2022/07/02 09:07:14;;;;;;;1.10;0.52;;;21.40;99.20;;;21.41;54.95;97859.06;4929811;28;20038;-41
2022/07/02 09:09:42;;;;;;;1.13;0.65;;;21.50;99.20;;;21.51;54.23;97864.63;4958068;28;20410;-39
2022/07/02 09:12:16;;;;;;;2.13;0.60;;;21.60;98.50;;;21.58;54.54;97859.69;4945265;28;20379;-39
2022/07/02 09:14:44;;;;;;;0.55;0.55;;;21.70;98.00;;;21.60;50.54;97838.94;4959408;28;20023;-39
2022/07/02 09:17:11;;;;;;;1.08;0.75;;;21.70;96.50;;;21.53;51.64;97819.75;4972060;28;20422;-39
2022/07/02 09:19:39;;;;;;;0.95;0.50;;;21.80;97.00;;;21.71;52.40;97833.63;4968407;28;20038;-41
2022/07/02 09:22:06;;;;;;;0.60;0.60;;;21.80;97.20;;;21.67;49.25;97830.31;4962548;28;20049;-42
2022/07/02 09:24:42;;;;;;;0.52;0.52;;;21.80;95.50;;;21.71;52.27;97830.94;4965559;28;20402;-41
2022/07/02 09:27:16;;;;;;;0.57;0.50;;;21.80;96.90;;;21.72;50.92;97820.09;4965236;28;20030;-40
2022/07/02 09:29:49;;;;;;;2.15;0.60;;;21.90;96.10;;;21.72;49.99;97819.22;4957693;28;20140;-41
2022/07/02 09:32:16;;;;;;;2.97;0.63;;;21.90;95.60;;;21.72;50.39;97821.91;4966839;28;20034;-39
2022/07/02 09:34:49;;;;;;;0.40;0.40;;;21.90;96.00;;;21.85;51.68;97832.56;4963495;28;20486;-41
2022/07/02 09:37:16;;;;;;;;;;;21.90;96.40;;;21.92;48.54;97840.03;4955601;28;20026;-42
2022/07/02 09:39:43;;;;;;;1.98;0.60;;;22.00;95.30;;;22.00;48.31;97838.59;4958285;28;19965;-43
2022/07/02 09:42:10;;;;;;;1.17;0.57;;;22.10;94.70;;;22.03;48.18;97843.75;4969715;28;20034;-41
2022/07/02 09:44:46;;;;;;;1.75;0.40;;;22.10;94.40;;;22.08;46.53;97841.56;4967427;28;20046;-41
2022/07/02 09:47:11;;;;;;;0.85;0.60;;;22.20;93.30;;;22.09;45.06;97849.50;4971404;28;20102;-43
2022/07/02 09:49:48;;;;;;;0.60;0.50;;;22.20;92.20;;;22.14;44.64;97849.13;4958281;28;20053;-41
2022/07/02 09:52:16;;;;;;;2.05;0.60;;;22.30;91.20;;;22.13;45.74;97839.38;4970334;28;20038;-41
2022/07/02 09:54:44;;;;;;;0.43;0.40;;;22.30;91.30;;;22.17;44.01;97845.38;4969425;28;20471;-41
2022/07/02 09:57:11;;;;;;;0.88;0.60;;;22.30;90.10;;;22.20;44.74;97840.63;4972916;28;20463;-44
2022/07/02 09:59:39;;;;;;;0.40;0.40;;;22.30;90.80;;;22.21;44.34;97841.47;4965047;28;20026;-41
2022/07/02 10:02:06;;;;;;;1.20;0.55;;;22.30;90.50;;;22.26;47.52;97840.16;4962614;28;20031;-41
2022/07/02 10:04:33;;;;;;;0.50;0.50;;;22.40;92.30;;;22.38;45.04;97837.47;4956985;28;20080;-42
2022/07/02 10:07:00;;;;;;;0.70;0.50;;;22.50;90.90;;;22.32;41.57;97841.50;4965136;28;20370;-44
2022/07/02 10:09:27;;;;;;;0.60;0.60;;;22.50;85.30;;;22.41;43.25;97835.41;4962323;28;20141;-40
2022/07/02 10:11:53;;;;;;;0.65;0.57;;;22.50;87.60;;;22.43;43.96;97837.97;4962557;28;20125;-42
2022/07/02 10:14:20;;;;;;;0.60;0.50;;;22.50;89.00;;;22.48;44.05;97825.03;4963149;28;20038;-41
2022/07/02 10:16:47;;;;;;;1.40;0.77;;;22.60;89.70;;;22.53;44.75;97825.53;4963693;28;20299;-41
2022/07/02 10:19:14;;;;;;;1.52;0.60;;;22.60;89.70;;;22.61;42.82;97819.53;4961653;28;20113;-41